sensor_id;sensor_type;location;lat;lon;timestamp;P1;durP1;ratioP1;P2;durP2;ratioP2
51358;SDS011;37448;51.588;7.248;2023-02-01T00:01:53;16.17;;;7.22;;
51358;SDS011;37448;51.588;7.248;2023-02-01T00:03:54;17.40;;;6.22;;
51358;SDS011;37448;51.588;7.248;2023-02-01T00:05:55;21.02;;;7.78;;
51358;SDS011;37448;51.588;7.248;2023-02-01T00:07:57;18.98;;;7.57;;
51358;SDS011;37448;51.588;7.248;2023-02-01T00:09:57;14.65;;;6.78;;
51358;SDS011;37448;51.588;7.248;2023-02-01T00:11:57;18.25;;;6.57;;
51358;SDS011;37448;51.588;7.248;2023-02-01T00:13:59;17.02;;;6.45;;
51358;SDS011;37448;51.588;7.248;2023-02-01T00:16:03;18.02;;;6.68;;
51358;SDS011;37448;51.588;7.248;2023-02-01T00:18:16;17.75;;;5.32;;
51358;SDS011;37448;51.588;7.248;2023-02-01T00:20:16;13.80;;;5.95;;
51358;SDS011;37448;51.588;7.248;2023-02-01T00:22:16;15.48;;;5.70;;
51358;SDS011;37448;51.588;7.248;2023-02-01T00:24:17;16.05;;;4.95;;
51358;SDS011;37448;51.588;7.248;2023-02-01T00:28:34;18.30;;;6.97;;
51358;SDS011;37448;51.588;7.248;2023-02-01T00:30:34;12.50;;;4.85;;
51358;SDS011;37448;51.588;7.248;2023-02-01T00:32:35;10.95;;;4.00;;
51358;SDS011;37448;51.588;7.248;2023-02-01T00:34:35;9.45;;;5.28;;
51358;SDS011;37448;51.588;7.248;2023-02-01T00:36:35;16.30;;;4.57;;
51358;SDS011;37448;51.588;7.248;2023-02-01T00:38:36;13.73;;;4.50;;
51358;SDS011;37448;51.588;7.248;2023-02-01T00:40:39;12.23;;;3.95;;
51358;SDS011;37448;51.588;7.248;2023-02-01T00:42:40;11.32;;;3.30;;
51358;SDS011;37448;51.588;7.248;2023-02-01T00:44:40;10.65;;;3.50;;
51358;SDS011;37448;51.588;7.248;2023-02-01T00:46:41;7.70;;;2.60;;
51358;SDS011;37448;51.588;7.248;2023-02-01T00:48:42;7.15;;;2.53;;
51358;SDS011;37448;51.588;7.248;2023-02-01T00:50:42;14.48;;;5.43;;
51358;SDS011;37448;51.588;7.248;2023-02-01T00:52:43;12.30;;;3.15;;
51358;SDS011;37448;51.588;7.248;2023-02-01T00:54:43;13.88;;;3.60;;
51358;SDS011;37448;51.588;7.248;2023-02-01T00:56:44;7.97;;;2.97;;
51358;SDS011;37448;51.588;7.248;2023-02-01T00:58:44;15.38;;;3.88;;
51358;SDS011;37448;51.588;7.248;2023-02-01T01:00:45;13.05;;;2.67;;
51358;SDS011;37448;51.588;7.248;2023-02-01T01:02:46;12.80;;;2.78;;
51358;SDS011;37448;51.588;7.248;2023-02-01T01:04:46;6.75;;;1.65;;
51358;SDS011;37448;51.588;7.248;2023-02-01T01:06:47;13.55;;;2.90;;
51358;SDS011;37448;51.588;7.248;2023-02-01T01:08:47;8.65;;;2.03;;
51358;SDS011;37448;51.588;7.248;2023-02-01T01:10:48;7.53;;;3.10;;
51358;SDS011;37448;51.588;7.248;2023-02-01T01:12:49;8.02;;;2.22;;
51358;SDS011;37448;51.588;7.248;2023-02-01T01:14:50;5.65;;;1.85;;
51358;SDS011;37448;51.588;7.248;2023-02-01T01:16:51;9.45;;;2.10;;
51358;SDS011;37448;51.588;7.248;2023-02-01T01:18:51;11.57;;;3.28;;
51358;SDS011;37448;51.588;7.248;2023-02-01T01:20:53;13.50;;;2.05;;
51358;SDS011;37448;51.588;7.248;2023-02-01T01:22:53;8.38;;;1.92;;
51358;SDS011;37448;51.588;7.248;2023-02-01T01:24:54;10.80;;;2.35;;
51358;SDS011;37448;51.588;7.248;2023-02-01T01:26:54;11.52;;;2.33;;
51358;SDS011;37448;51.588;7.248;2023-02-01T01:28:55;7.28;;;2.17;;
51358;SDS011;37448;51.588;7.248;2023-02-01T01:30:56;9.43;;;1.75;;
51358;SDS011;37448;51.588;7.248;2023-02-01T01:32:56;9.02;;;1.95;;
51358;SDS011;37448;51.588;7.248;2023-02-01T01:34:57;7.25;;;2.05;;
51358;SDS011;37448;51.588;7.248;2023-02-01T01:36:57;10.57;;;2.17;;
51358;SDS011;37448;51.588;7.248;2023-02-01T01:38:58;7.60;;;2.30;;
51358;SDS011;37448;51.588;7.248;2023-02-01T01:40:58;6.63;;;2.13;;
51358;SDS011;37448;51.588;7.248;2023-02-01T01:42:59;12.85;;;2.90;;
51358;SDS011;37448;51.588;7.248;2023-02-01T01:45:01;6.63;;;2.13;;
51358;SDS011;37448;51.588;7.248;2023-02-01T01:47:05;8.52;;;2.38;;
51358;SDS011;37448;51.588;7.248;2023-02-01T01:49:17;8.13;;;2.63;;
51358;SDS011;37448;51.588;7.248;2023-02-01T01:51:20;9.70;;;2.42;;
51358;SDS011;37448;51.588;7.248;2023-02-01T01:53:27;12.90;;;3.30;;
51358;SDS011;37448;51.588;7.248;2023-02-01T01:55:32;8.27;;;1.70;;
51358;SDS011;37448;51.588;7.248;2023-02-01T01:57:38;6.20;;;2.35;;
51358;SDS011;37448;51.588;7.248;2023-02-01T01:59:42;9.88;;;2.67;;
51358;SDS011;37448;51.588;7.248;2023-02-01T02:01:48;7.70;;;1.90;;
51358;SDS011;37448;51.588;7.248;2023-02-01T02:03:49;7.28;;;2.05;;
51358;SDS011;37448;51.588;7.248;2023-02-01T02:05:52;8.38;;;2.60;;
51358;SDS011;37448;51.588;7.248;2023-02-01T02:07:56;13.45;;;2.25;;
51358;SDS011;37448;51.588;7.248;2023-02-01T02:09:58;7.32;;;2.25;;
51358;SDS011;37448;51.588;7.248;2023-02-01T02:12:00;9.30;;;2.63;;
51358;SDS011;37448;51.588;7.248;2023-02-01T02:14:00;14.75;;;3.08;;
51358;SDS011;37448;51.588;7.248;2023-02-01T02:16:12;11.65;;;2.17;;
51358;SDS011;37448;51.588;7.248;2023-02-01T02:20:48;8.23;;;2.10;;
51358;SDS011;37448;51.588;7.248;2023-02-01T02:30:00;9.75;;;2.85;;
51358;SDS011;37448;51.588;7.248;2023-02-01T02:39:08;11.02;;;3.22;;
51358;SDS011;37448;51.588;7.248;2023-02-01T02:41:20;7.00;;;2.63;;
51358;SDS011;37448;51.588;7.248;2023-02-01T02:43:46;12.23;;;2.47;;
51358;SDS011;37448;51.588;7.248;2023-02-01T02:46:23;8.45;;;2.10;;
51358;SDS011;37448;51.588;7.248;2023-02-01T02:48:48;8.35;;;2.88;;
51358;SDS011;37448;51.588;7.248;2023-02-01T02:50:51;9.23;;;3.63;;
51358;SDS011;37448;51.588;7.248;2023-02-01T02:53:24;11.93;;;3.70;;
51358;SDS011;37448;51.588;7.248;2023-02-01T02:55:49;10.18;;;2.53;;
51358;SDS011;37448;51.588;7.248;2023-02-01T02:57:51;11.70;;;2.53;;
51358;SDS011;37448;51.588;7.248;2023-02-01T03:00:14;7.35;;;2.83;;
51358;SDS011;37448;51.588;7.248;2023-02-01T03:02:36;7.82;;;2.75;;
51358;SDS011;37448;51.588;7.248;2023-02-01T03:04:56;18.23;;;3.25;;
51358;SDS011;37448;51.588;7.248;2023-02-01T03:06:57;11.00;;;1.98;;
51358;SDS011;37448;51.588;7.248;2023-02-01T03:09:13;9.25;;;1.88;;
51358;SDS011;37448;51.588;7.248;2023-02-01T03:11:21;7.85;;;1.88;;
51358;SDS011;37448;51.588;7.248;2023-02-01T03:13:33;12.55;;;2.33;;
51358;SDS011;37448;51.588;7.248;2023-02-01T03:15:45;9.20;;;2.40;;
51358;SDS011;37448;51.588;7.248;2023-02-01T03:17:56;5.75;;;2.50;;
51358;SDS011;37448;51.588;7.248;2023-02-01T03:20:01;6.50;;;1.95;;
51358;SDS011;37448;51.588;7.248;2023-02-01T03:22:04;15.65;;;1.83;;
51358;SDS011;37448;51.588;7.248;2023-02-01T03:24:11;11.77;;;2.20;;
51358;SDS011;37448;51.588;7.248;2023-02-01T03:26:16;7.13;;;1.30;;
51358;SDS011;37448;51.588;7.248;2023-02-01T03:28:20;5.63;;;1.73;;
51358;SDS011;37448;51.588;7.248;2023-02-01T03:32:28;7.85;;;1.77;;
51358;SDS011;37448;51.588;7.248;2023-02-01T03:34:49;8.10;;;2.60;;
51358;SDS011;37448;51.588;7.248;2023-02-01T03:36:52;6.35;;;1.80;;
51358;SDS011;37448;51.588;7.248;2023-02-01T03:43:49;6.30;;;2.10;;
51358;SDS011;37448;51.588;7.248;2023-02-01T03:45:58;8.82;;;2.75;;
51358;SDS011;37448;51.588;7.248;2023-02-01T03:48:01;8.45;;;1.90;;
51358;SDS011;37448;51.588;7.248;2023-02-01T03:50:07;10.48;;;2.60;;
51358;SDS011;37448;51.588;7.248;2023-02-01T03:52:21;8.95;;;2.67;;
51358;SDS011;37448;51.588;7.248;2023-02-01T03:54:31;7.57;;;2.00;;
51358;SDS011;37448;51.588;7.248;2023-02-01T03:56:32;12.27;;;2.25;;
51358;SDS011;37448;51.588;7.248;2023-02-01T03:58:37;13.43;;;2.65;;
51358;SDS011;37448;51.588;7.248;2023-02-01T04:00:38;10.70;;;2.80;;
51358;SDS011;37448;51.588;7.248;2023-02-01T04:02:39;6.18;;;2.20;;
51358;SDS011;37448;51.588;7.248;2023-02-01T04:04:40;9.23;;;1.85;;
51358;SDS011;37448;51.588;7.248;2023-02-01T04:06:40;7.93;;;1.85;;
51358;SDS011;37448;51.588;7.248;2023-02-01T04:08:41;11.38;;;1.75;;
51358;SDS011;37448;51.588;7.248;2023-02-01T04:10:41;8.43;;;2.65;;
51358;SDS011;37448;51.588;7.248;2023-02-01T04:12:42;8.43;;;2.10;;
51358;SDS011;37448;51.588;7.248;2023-02-01T04:14:43;9.05;;;2.30;;
51358;SDS011;37448;51.588;7.248;2023-02-01T04:16:43;9.82;;;2.53;;
51358;SDS011;37448;51.588;7.248;2023-02-01T04:18:43;12.43;;;2.65;;
51358;SDS011;37448;51.588;7.248;2023-02-01T04:20:44;11.35;;;2.72;;
51358;SDS011;37448;51.588;7.248;2023-02-01T04:22:44;10.82;;;2.55;;
51358;SDS011;37448;51.588;7.248;2023-02-01T04:24:45;17.48;;;3.13;;
51358;SDS011;37448;51.588;7.248;2023-02-01T04:26:45;12.50;;;3.20;;
51358;SDS011;37448;51.588;7.248;2023-02-01T04:28:46;12.40;;;2.03;;
51358;SDS011;37448;51.588;7.248;2023-02-01T04:30:49;9.57;;;2.58;;
51358;SDS011;37448;51.588;7.248;2023-02-01T04:32:49;11.60;;;2.55;;
51358;SDS011;37448;51.588;7.248;2023-02-01T04:34:49;9.05;;;2.90;;
51358;SDS011;37448;51.588;7.248;2023-02-01T04:36:50;13.15;;;2.67;;
51358;SDS011;37448;51.588;7.248;2023-02-01T04:38:51;7.65;;;2.05;;
51358;SDS011;37448;51.588;7.248;2023-02-01T04:40:52;18.00;;;3.30;;
51358;SDS011;37448;51.588;7.248;2023-02-01T04:42:53;13.82;;;2.22;;
51358;SDS011;37448;51.588;7.248;2023-02-01T04:44:54;9.30;;;2.38;;
51358;SDS011;37448;51.588;7.248;2023-02-01T04:46:54;11.82;;;2.70;;
51358;SDS011;37448;51.588;7.248;2023-02-01T04:48:55;10.15;;;2.28;;
51358;SDS011;37448;51.588;7.248;2023-02-01T04:50:55;10.45;;;2.50;;
51358;SDS011;37448;51.588;7.248;2023-02-01T04:52:55;12.48;;;2.15;;
51358;SDS011;37448;51.588;7.248;2023-02-01T04:54:56;9.70;;;2.90;;
51358;SDS011;37448;51.588;7.248;2023-02-01T04:56:57;13.38;;;3.63;;
51358;SDS011;37448;51.588;7.248;2023-02-01T04:58:57;9.02;;;2.08;;
51358;SDS011;37448;51.588;7.248;2023-02-01T05:00:58;8.48;;;1.85;;
51358;SDS011;37448;51.588;7.248;2023-02-01T05:02:58;13.43;;;2.33;;
51358;SDS011;37448;51.588;7.248;2023-02-01T05:04:58;16.13;;;3.78;;
51358;SDS011;37448;51.588;7.248;2023-02-01T05:06:59;12.52;;;2.63;;
51358;SDS011;37448;51.588;7.248;2023-02-01T05:08:59;14.05;;;2.75;;
51358;SDS011;37448;51.588;7.248;2023-02-01T05:11:00;11.60;;;2.78;;
51358;SDS011;37448;51.588;7.248;2023-02-01T05:13:02;15.77;;;2.38;;
51358;SDS011;37448;51.588;7.248;2023-02-01T05:15:21;8.38;;;1.85;;
51358;SDS011;37448;51.588;7.248;2023-02-01T05:17:22;11.00;;;2.03;;
51358;SDS011;37448;51.588;7.248;2023-02-01T05:19:22;11.18;;;2.30;;
51358;SDS011;37448;51.588;7.248;2023-02-01T05:21:23;7.40;;;2.22;;
51358;SDS011;37448;51.588;7.248;2023-02-01T05:23:23;8.30;;;1.88;;
51358;SDS011;37448;51.588;7.248;2023-02-01T05:25:23;10.90;;;2.13;;
51358;SDS011;37448;51.588;7.248;2023-02-01T05:27:24;12.88;;;2.33;;
51358;SDS011;37448;51.588;7.248;2023-02-01T05:29:24;12.82;;;3.38;;
51358;SDS011;37448;51.588;7.248;2023-02-01T05:31:25;15.05;;;3.08;;
51358;SDS011;37448;51.588;7.248;2023-02-01T05:33:25;9.27;;;1.90;;
51358;SDS011;37448;51.588;7.248;2023-02-01T05:35:25;9.98;;;3.30;;
51358;SDS011;37448;51.588;7.248;2023-02-01T05:37:26;8.63;;;2.25;;
51358;SDS011;37448;51.588;7.248;2023-02-01T05:39:26;10.68;;;2.30;;
51358;SDS011;37448;51.588;7.248;2023-02-01T05:41:27;8.45;;;2.15;;
51358;SDS011;37448;51.588;7.248;2023-02-01T05:43:27;11.30;;;2.05;;
51358;SDS011;37448;51.588;7.248;2023-02-01T05:45:27;23.67;;;3.25;;
51358;SDS011;37448;51.588;7.248;2023-02-01T05:47:28;8.20;;;1.75;;
51358;SDS011;37448;51.588;7.248;2023-02-01T05:49:28;9.05;;;2.45;;
51358;SDS011;37448;51.588;7.248;2023-02-01T05:51:29;13.00;;;2.45;;
51358;SDS011;37448;51.588;7.248;2023-02-01T05:53:29;9.75;;;3.40;;
51358;SDS011;37448;51.588;7.248;2023-02-01T05:55:29;5.00;;;2.45;;
51358;SDS011;37448;51.588;7.248;2023-02-01T05:57:30;11.13;;;2.47;;
51358;SDS011;37448;51.588;7.248;2023-02-01T05:59:30;12.73;;;2.67;;
51358;SDS011;37448;51.588;7.248;2023-02-01T06:01:30;10.77;;;2.03;;
51358;SDS011;37448;51.588;7.248;2023-02-01T06:03:31;9.93;;;1.60;;
51358;SDS011;37448;51.588;7.248;2023-02-01T06:05:31;12.02;;;1.85;;
51358;SDS011;37448;51.588;7.248;2023-02-01T06:07:32;9.25;;;1.90;;
51358;SDS011;37448;51.588;7.248;2023-02-01T06:09:32;13.23;;;2.42;;
51358;SDS011;37448;51.588;7.248;2023-02-01T06:11:33;13.18;;;2.20;;
51358;SDS011;37448;51.588;7.248;2023-02-01T06:13:33;12.85;;;2.47;;
51358;SDS011;37448;51.588;7.248;2023-02-01T06:15:34;12.23;;;4.20;;
51358;SDS011;37448;51.588;7.248;2023-02-01T06:17:35;12.63;;;2.22;;
51358;SDS011;37448;51.588;7.248;2023-02-01T06:19:35;10.75;;;2.92;;
51358;SDS011;37448;51.588;7.248;2023-02-01T06:21:36;7.32;;;2.20;;
51358;SDS011;37448;51.588;7.248;2023-02-01T06:23:36;11.95;;;2.55;;
51358;SDS011;37448;51.588;7.248;2023-02-01T06:25:36;12.60;;;3.53;;
51358;SDS011;37448;51.588;7.248;2023-02-01T06:27:37;10.05;;;2.65;;
51358;SDS011;37448;51.588;7.248;2023-02-01T06:29:38;5.90;;;2.22;;
51358;SDS011;37448;51.588;7.248;2023-02-01T06:31:38;12.32;;;3.67;;
51358;SDS011;37448;51.588;7.248;2023-02-01T06:33:39;12.50;;;2.53;;
51358;SDS011;37448;51.588;7.248;2023-02-01T06:35:41;12.45;;;1.92;;
51358;SDS011;37448;51.588;7.248;2023-02-01T06:37:44;10.48;;;2.40;;
51358;SDS011;37448;51.588;7.248;2023-02-01T06:39:44;5.10;;;1.52;;
51358;SDS011;37448;51.588;7.248;2023-02-01T06:41:48;6.18;;;2.05;;
51358;SDS011;37448;51.588;7.248;2023-02-01T06:43:48;10.60;;;2.45;;
51358;SDS011;37448;51.588;7.248;2023-02-01T06:45:49;6.00;;;2.45;;
51358;SDS011;37448;51.588;7.248;2023-02-01T06:47:50;11.73;;;2.45;;
51358;SDS011;37448;51.588;7.248;2023-02-01T06:49:50;16.70;;;3.40;;
51358;SDS011;37448;51.588;7.248;2023-02-01T06:51:51;16.80;;;3.90;;
51358;SDS011;37448;51.588;7.248;2023-02-01T06:53:51;15.00;;;3.55;;
51358;SDS011;37448;51.588;7.248;2023-02-01T06:55:55;15.73;;;4.10;;
51358;SDS011;37448;51.588;7.248;2023-02-01T06:57:59;15.23;;;2.25;;
51358;SDS011;37448;51.588;7.248;2023-02-01T07:00:02;9.43;;;3.97;;
51358;SDS011;37448;51.588;7.248;2023-02-01T07:02:03;14.43;;;4.95;;
51358;SDS011;37448;51.588;7.248;2023-02-01T07:04:04;12.07;;;4.50;;
51358;SDS011;37448;51.588;7.248;2023-02-01T07:06:04;7.88;;;2.40;;
51358;SDS011;37448;51.588;7.248;2023-02-01T07:08:05;11.07;;;2.58;;
51358;SDS011;37448;51.588;7.248;2023-02-01T07:10:06;9.68;;;2.30;;
51358;SDS011;37448;51.588;7.248;2023-02-01T07:12:07;11.63;;;3.20;;
51358;SDS011;37448;51.588;7.248;2023-02-01T07:14:07;10.10;;;2.25;;
51358;SDS011;37448;51.588;7.248;2023-02-01T07:16:11;12.75;;;2.55;;
51358;SDS011;37448;51.588;7.248;2023-02-01T07:18:14;13.10;;;2.38;;
51358;SDS011;37448;51.588;7.248;2023-02-01T07:20:15;11.20;;;2.08;;
51358;SDS011;37448;51.588;7.248;2023-02-01T07:22:16;11.20;;;2.45;;
51358;SDS011;37448;51.588;7.248;2023-02-01T07:24:17;9.88;;;2.65;;
51358;SDS011;37448;51.588;7.248;2023-02-01T07:26:17;10.75;;;1.75;;
51358;SDS011;37448;51.588;7.248;2023-02-01T07:28:17;7.78;;;2.78;;
51358;SDS011;37448;51.588;7.248;2023-02-01T07:30:18;7.90;;;2.25;;
51358;SDS011;37448;51.588;7.248;2023-02-01T07:32:18;10.63;;;2.30;;
51358;SDS011;37448;51.588;7.248;2023-02-01T07:34:19;11.50;;;2.33;;
51358;SDS011;37448;51.588;7.248;2023-02-01T07:36:19;9.45;;;2.67;;
51358;SDS011;37448;51.588;7.248;2023-02-01T07:38:20;7.50;;;1.88;;
51358;SDS011;37448;51.588;7.248;2023-02-01T07:40:21;9.70;;;3.10;;
51358;SDS011;37448;51.588;7.248;2023-02-01T07:42:28;12.38;;;3.05;;
51358;SDS011;37448;51.588;7.248;2023-02-01T07:44:28;8.25;;;2.70;;
51358;SDS011;37448;51.588;7.248;2023-02-01T07:46:29;6.60;;;2.38;;
51358;SDS011;37448;51.588;7.248;2023-02-01T07:48:29;12.52;;;2.20;;
51358;SDS011;37448;51.588;7.248;2023-02-01T07:50:30;11.40;;;2.97;;
51358;SDS011;37448;51.588;7.248;2023-02-01T07:52:31;22.73;;;4.00;;
51358;SDS011;37448;51.588;7.248;2023-02-01T07:54:31;11.18;;;2.60;;
51358;SDS011;37448;51.588;7.248;2023-02-01T07:56:31;13.75;;;3.00;;
51358;SDS011;37448;51.588;7.248;2023-02-01T07:58:32;14.77;;;3.63;;
51358;SDS011;37448;51.588;7.248;2023-02-01T08:00:32;10.85;;;2.25;;
51358;SDS011;37448;51.588;7.248;2023-02-01T08:02:51;8.45;;;2.97;;
51358;SDS011;37448;51.588;7.248;2023-02-01T08:04:51;15.82;;;2.80;;
51358;SDS011;37448;51.588;7.248;2023-02-01T08:06:52;14.77;;;3.13;;
51358;SDS011;37448;51.588;7.248;2023-02-01T08:08:52;10.52;;;2.95;;
51358;SDS011;37448;51.588;7.248;2023-02-01T08:10:57;15.05;;;3.28;;
51358;SDS011;37448;51.588;7.248;2023-02-01T08:12:58;16.52;;;3.25;;
51358;SDS011;37448;51.588;7.248;2023-02-01T08:14:59;14.00;;;2.92;;
51358;SDS011;37448;51.588;7.248;2023-02-01T08:17:00;14.93;;;2.53;;
51358;SDS011;37448;51.588;7.248;2023-02-01T08:19:00;12.60;;;3.65;;
51358;SDS011;37448;51.588;7.248;2023-02-01T08:21:04;10.73;;;2.97;;
51358;SDS011;37448;51.588;7.248;2023-02-01T08:23:10;17.77;;;3.65;;
51358;SDS011;37448;51.588;7.248;2023-02-01T08:25:10;11.73;;;2.88;;
51358;SDS011;37448;51.588;7.248;2023-02-01T08:27:11;12.57;;;2.60;;
51358;SDS011;37448;51.588;7.248;2023-02-01T08:29:12;9.02;;;2.72;;
51358;SDS011;37448;51.588;7.248;2023-02-01T08:31:14;11.57;;;2.92;;
51358;SDS011;37448;51.588;7.248;2023-02-01T08:33:16;9.82;;;3.15;;
51358;SDS011;37448;51.588;7.248;2023-02-01T08:35:16;15.02;;;2.30;;
51358;SDS011;37448;51.588;7.248;2023-02-01T08:37:17;11.35;;;2.97;;
51358;SDS011;37448;51.588;7.248;2023-02-01T08:39:17;7.68;;;2.63;;
51358;SDS011;37448;51.588;7.248;2023-02-01T08:41:19;14.73;;;2.55;;
51358;SDS011;37448;51.588;7.248;2023-02-01T08:43:21;19.38;;;3.63;;
51358;SDS011;37448;51.588;7.248;2023-02-01T08:45:22;12.38;;;2.95;;
51358;SDS011;37448;51.588;7.248;2023-02-01T08:47:25;8.57;;;2.55;;
51358;SDS011;37448;51.588;7.248;2023-02-01T08:49:25;13.25;;;3.85;;
51358;SDS011;37448;51.588;7.248;2023-02-01T08:51:25;10.75;;;2.65;;
51358;SDS011;37448;51.588;7.248;2023-02-01T08:53:26;8.65;;;2.97;;
51358;SDS011;37448;51.588;7.248;2023-02-01T08:55:26;8.43;;;2.50;;
51358;SDS011;37448;51.588;7.248;2023-02-01T08:57:27;13.20;;;3.03;;
51358;SDS011;37448;51.588;7.248;2023-02-01T08:59:28;12.35;;;3.75;;
51358;SDS011;37448;51.588;7.248;2023-02-01T09:01:28;13.60;;;3.10;;
51358;SDS011;37448;51.588;7.248;2023-02-01T09:03:28;10.75;;;3.15;;
51358;SDS011;37448;51.588;7.248;2023-02-01T09:05:29;17.02;;;4.22;;
51358;SDS011;37448;51.588;7.248;2023-02-01T09:07:29;10.23;;;2.92;;
51358;SDS011;37448;51.588;7.248;2023-02-01T09:09:29;15.43;;;2.95;;
51358;SDS011;37448;51.588;7.248;2023-02-01T09:11:30;10.25;;;2.72;;
51358;SDS011;37448;51.588;7.248;2023-02-01T09:13:30;12.23;;;3.40;;
51358;SDS011;37448;51.588;7.248;2023-02-01T09:15:31;15.90;;;3.50;;
51358;SDS011;37448;51.588;7.248;2023-02-01T09:17:31;14.10;;;3.13;;
51358;SDS011;37448;51.588;7.248;2023-02-01T09:19:31;13.68;;;3.08;;
51358;SDS011;37448;51.588;7.248;2023-02-01T09:21:32;15.00;;;2.95;;
51358;SDS011;37448;51.588;7.248;2023-02-01T09:23:33;7.93;;;2.72;;
51358;SDS011;37448;51.588;7.248;2023-02-01T09:25:36;13.60;;;3.20;;
51358;SDS011;37448;51.588;7.248;2023-02-01T09:27:38;13.43;;;2.97;;
51358;SDS011;37448;51.588;7.248;2023-02-01T09:29:38;9.50;;;3.28;;
51358;SDS011;37448;51.588;7.248;2023-02-01T09:31:39;11.57;;;3.40;;
51358;SDS011;37448;51.588;7.248;2023-02-01T09:33:39;14.32;;;3.40;;
51358;SDS011;37448;51.588;7.248;2023-02-01T09:35:40;14.15;;;2.55;;
51358;SDS011;37448;51.588;7.248;2023-02-01T09:37:40;12.93;;;3.85;;
51358;SDS011;37448;51.588;7.248;2023-02-01T09:39:41;14.45;;;4.03;;
51358;SDS011;37448;51.588;7.248;2023-02-01T09:41:46;18.13;;;3.45;;
51358;SDS011;37448;51.588;7.248;2023-02-01T09:48:33;21.02;;;5.60;;
51358;SDS011;37448;51.588;7.248;2023-02-01T09:50:39;13.40;;;4.07;;
51358;SDS011;37448;51.588;7.248;2023-02-01T09:52:46;10.02;;;2.70;;
51358;SDS011;37448;51.588;7.248;2023-02-01T09:57:40;8.45;;;3.08;;
51358;SDS011;37448;51.588;7.248;2023-02-01T09:59:44;9.63;;;3.03;;
51358;SDS011;37448;51.588;7.248;2023-02-01T10:01:49;16.58;;;4.35;;
51358;SDS011;37448;51.588;7.248;2023-02-01T10:03:50;12.32;;;3.90;;
51358;SDS011;37448;51.588;7.248;2023-02-01T10:06:00;13.50;;;3.40;;
51358;SDS011;37448;51.588;7.248;2023-02-01T10:08:26;9.77;;;3.38;;
51358;SDS011;37448;51.588;7.248;2023-02-01T10:10:47;18.63;;;3.85;;
51358;SDS011;37448;51.588;7.248;2023-02-01T10:19:24;10.05;;;3.58;;
51358;SDS011;37448;51.588;7.248;2023-02-01T10:24:16;10.52;;;3.40;;
51358;SDS011;37448;51.588;7.248;2023-02-01T10:28:24;9.27;;;3.13;;
51358;SDS011;37448;51.588;7.248;2023-02-01T10:30:29;17.55;;;4.68;;
51358;SDS011;37448;51.588;7.248;2023-02-01T10:32:34;11.95;;;3.20;;
51358;SDS011;37448;51.588;7.248;2023-02-01T10:34:35;15.13;;;3.45;;
51358;SDS011;37448;51.588;7.248;2023-02-01T10:36:40;12.73;;;3.45;;
51358;SDS011;37448;51.588;7.248;2023-02-01T10:38:42;5.72;;;3.22;;
51358;SDS011;37448;51.588;7.248;2023-02-01T10:40:43;11.27;;;3.55;;
51358;SDS011;37448;51.588;7.248;2023-02-01T10:42:43;12.57;;;3.17;;
51358;SDS011;37448;51.588;7.248;2023-02-01T10:44:44;7.45;;;2.83;;
51358;SDS011;37448;51.588;7.248;2023-02-01T10:46:46;14.90;;;3.47;;
51358;SDS011;37448;51.588;7.248;2023-02-01T10:48:47;18.88;;;4.18;;
51358;SDS011;37448;51.588;7.248;2023-02-01T10:51:00;19.92;;;3.90;;
51358;SDS011;37448;51.588;7.248;2023-02-01T10:57:58;5.28;;;3.10;;
51358;SDS011;37448;51.588;7.248;2023-02-01T11:00:02;13.63;;;2.90;;
51358;SDS011;37448;51.588;7.248;2023-02-01T11:04:33;12.25;;;2.88;;
51358;SDS011;37448;51.588;7.248;2023-02-01T11:06:39;7.57;;;3.28;;
51358;SDS011;37448;51.588;7.248;2023-02-01T11:08:42;10.27;;;4.05;;
51358;SDS011;37448;51.588;7.248;2023-02-01T11:10:49;12.60;;;3.90;;
51358;SDS011;37448;51.588;7.248;2023-02-01T11:12:58;13.88;;;3.20;;
51358;SDS011;37448;51.588;7.248;2023-02-01T11:15:23;11.55;;;3.42;;
51358;SDS011;37448;51.588;7.248;2023-02-01T11:17:26;5.20;;;2.60;;
51358;SDS011;37448;51.588;7.248;2023-02-01T11:19:35;10.95;;;3.72;;
51358;SDS011;37448;51.588;7.248;2023-02-01T11:21:35;8.40;;;2.40;;
51358;SDS011;37448;51.588;7.248;2023-02-01T11:23:39;13.60;;;3.95;;
51358;SDS011;37448;51.588;7.248;2023-02-01T11:25:50;10.15;;;2.97;;
51358;SDS011;37448;51.588;7.248;2023-02-01T11:27:53;13.48;;;2.97;;
51358;SDS011;37448;51.588;7.248;2023-02-01T11:29:57;14.85;;;3.00;;
51358;SDS011;37448;51.588;7.248;2023-02-01T11:32:02;13.13;;;2.88;;
51358;SDS011;37448;51.588;7.248;2023-02-01T11:34:06;14.35;;;3.50;;
51358;SDS011;37448;51.588;7.248;2023-02-01T11:36:13;11.50;;;3.25;;
51358;SDS011;37448;51.588;7.248;2023-02-01T11:40:34;9.43;;;2.70;;
51358;SDS011;37448;51.588;7.248;2023-02-01T11:42:36;14.20;;;3.50;;
51358;SDS011;37448;51.588;7.248;2023-02-01T11:45:15;12.32;;;3.63;;
51358;SDS011;37448;51.588;7.248;2023-02-01T11:49:24;11.32;;;3.15;;
51358;SDS011;37448;51.588;7.248;2023-02-01T11:51:34;13.63;;;3.30;;
51358;SDS011;37448;51.588;7.248;2023-02-01T11:58:12;12.75;;;3.75;;
51358;SDS011;37448;51.588;7.248;2023-02-01T12:02:39;12.15;;;3.65;;
51358;SDS011;37448;51.588;7.248;2023-02-01T12:12:26;16.10;;;2.47;;
51358;SDS011;37448;51.588;7.248;2023-02-01T12:17:00;12.85;;;2.95;;
51358;SDS011;37448;51.588;7.248;2023-02-01T12:21:26;9.27;;;2.78;;
51358;SDS011;37448;51.588;7.248;2023-02-01T12:32:55;10.35;;;3.45;;
51358;SDS011;37448;51.588;7.248;2023-02-01T12:37:18;12.95;;;3.30;;
51358;SDS011;37448;51.588;7.248;2023-02-01T12:39:32;11.82;;;3.35;;
51358;SDS011;37448;51.588;7.248;2023-02-01T12:41:47;13.10;;;2.88;;
51358;SDS011;37448;51.588;7.248;2023-02-01T12:46:35;8.70;;;2.70;;
51358;SDS011;37448;51.588;7.248;2023-02-01T12:48:35;13.65;;;2.90;;
51358;SDS011;37448;51.588;7.248;2023-02-01T12:51:20;10.75;;;2.47;;
51358;SDS011;37448;51.588;7.248;2023-02-01T12:53:07;7.88;;;3.15;;
51358;SDS011;37448;51.588;7.248;2023-02-01T12:57:44;5.80;;;2.33;;
51358;SDS011;37448;51.588;7.248;2023-02-01T12:59:55;11.05;;;2.53;;
51358;SDS011;37448;51.588;7.248;2023-02-01T13:04:42;8.52;;;2.83;;
51358;SDS011;37448;51.588;7.248;2023-02-01T13:06:56;7.75;;;1.85;;
51358;SDS011;37448;51.588;7.248;2023-02-01T13:09:05;11.93;;;2.85;;
51358;SDS011;37448;51.588;7.248;2023-02-01T13:11:19;15.20;;;2.65;;
51358;SDS011;37448;51.588;7.248;2023-02-01T13:13:31;11.40;;;2.40;;
51358;SDS011;37448;51.588;7.248;2023-02-01T13:15:58;10.68;;;2.22;;
51358;SDS011;37448;51.588;7.248;2023-02-01T13:18:09;8.15;;;2.28;;
51358;SDS011;37448;51.588;7.248;2023-02-01T13:20:24;20.73;;;2.88;;
51358;SDS011;37448;51.588;7.248;2023-02-01T13:22:43;11.85;;;3.58;;
51358;SDS011;37448;51.588;7.248;2023-02-01T13:24:50;9.63;;;2.47;;
51358;SDS011;37448;51.588;7.248;2023-02-01T13:26:59;5.18;;;1.45;;
51358;SDS011;37448;51.588;7.248;2023-02-01T13:29:04;10.82;;;2.42;;
51358;SDS011;37448;51.588;7.248;2023-02-01T13:38:36;9.80;;;2.20;;
51358;SDS011;37448;51.588;7.248;2023-02-01T13:43:01;15.32;;;2.55;;
51358;SDS011;37448;51.588;7.248;2023-02-01T13:45:17;8.80;;;2.10;;
51358;SDS011;37448;51.588;7.248;2023-02-01T13:49:37;8.85;;;2.40;;
51358;SDS011;37448;51.588;7.248;2023-02-01T13:51:46;17.58;;;4.32;;
51358;SDS011;37448;51.588;7.248;2023-02-01T13:53:49;10.55;;;2.72;;
51358;SDS011;37448;51.588;7.248;2023-02-01T13:55:59;11.27;;;2.42;;
51358;SDS011;37448;51.588;7.248;2023-02-01T14:04:45;11.80;;;3.17;;
51358;SDS011;37448;51.588;7.248;2023-02-01T14:06:48;8.98;;;2.15;;
51358;SDS011;37448;51.588;7.248;2023-02-01T14:09:13;10.70;;;2.78;;
51358;SDS011;37448;51.588;7.248;2023-02-01T14:11:31;9.05;;;3.38;;
51358;SDS011;37448;51.588;7.248;2023-02-01T14:15:35;8.27;;;2.45;;